KSNY

Sidney Municipal / Lloyd W Carr Field Airport

Sidney, Nebraska, USA
KSNY 232327Z 2400/2424 15012KT P6SM BKN100 FM240900 18010KT 5SM -RA OVC020 FM241800 18012KT 6SM -SHRA OVC035
Issued Valid From Valid To
Oct-23 @ 23:27 UTC
(6 hours ago)
Oct-24 @ 00:00 UTC
(5 hours ago)
Oct-25 @ 00:00 UTC
(in 19 hours)
Oct-24 @ 00:00 to Oct-24 @ 09:00
KSNY 232327Z 2400/2424 15012KT P6SM BKN100
Wind Visibility Clouds
150° at 12 knots Greater than 6 miles
  • Broken at 10,000' AGL
From Oct-24 @ 09:00 to Oct-24 @ 18:00
FM240900 18010KT 5SM -RA OVC020
Wind Visibility Clouds Conditions
180° at 10 knots 5 miles
  • Overcast at 2,000' AGL
  • Light Rain
From Oct-24 @ 18:00 to Oct-25 @ 00:00
FM241800 18012KT 6SM -SHRA OVC035
Wind Visibility Clouds Conditions
180° at 12 knots 6 miles
  • Overcast at 3,500' AGL
  • Light Rain
KSNY 232327Z 2400/2424 15012KT P6SM BKN100 FM240900 18010KT 5SM -RA OVC020 FM241800 18012KT 6SM -SHRA OVC035
Issued Oct-23 @ 23:27 UTC
(6 hours ago)
Valid From Oct-24 @ 00:00 UTC
(5 hours ago)
Valid To Oct-25 @ 00:00 UTC
(in 19 hours)
Oct-24 @ 00:00 - Oct-24 @ 09:00
Wind Visibility
150° at 12 knots Greater than 6 miles
Clouds
  • Broken at 10,000' AGL
From Oct-24 @ 09:00 - Oct-24 @ 18:00
Wind Visibility
180° at 10 knots 5 miles
Clouds
  • Overcast at 2,000' AGL
Conditions
  • Light Rain
From Oct-24 @ 18:00 - Oct-25 @ 00:00
Wind Visibility
180° at 12 knots 6 miles
Clouds
  • Overcast at 3,500' AGL
Conditions
  • Light Rain